Rs KlaveneSS Marine — LEBG — position and weather

sailwx.info

Track history (hours):
 
Tides and Currents Weather Stations Pressure Air Temp Water Temp Dewpoint Dewpoint Depression Visibility Wind Speed Wind Dir Waves Ship Positions

Rs KlaveneSS Marine

Last reported at 2018-Jun-22 02:00 UTC. Time now 2018-Jun-22 01:59 UTC.
Position N 59°40' E 010°36'.

Length 17 m; draft 1 m.

Type: SAR. MMSI: 257928800.

Date/timePositionNaut miles runAvg speedWind from/ knotsBaromVisibWave heightAir tempDewpointWater temp
2018-Jun-22 02:00N 59°40' E 010°36'0 0.0
2018-Jun-22 01:30N 59°40' E 010°36'0 0.0
2018-Jun-22 00:51N 59°40' E 010°36'0 0.0
2018-Jun-22 00:26N 59°40' E 010°36'0 0.0
2018-Jun-21 23:59N 59°40' E 010°36'0 0.0
2018-Jun-21 23:12N 59°40' E 010°36'0 0.0
2018-Jun-21 22:59N 59°40' E 010°36'0 0.0
2018-Jun-21 22:28N 59°40' E 010°36'0 0.0
2018-Jun-21 22:00N 59°40' E 010°36'0 0.0
2018-Jun-21 21:26N 59°40' E 010°36'0 0.0
2018-Jun-21 20:59N 59°40' E 010°36'0 0.0
2018-Jun-21 20:30N 59°40' E 010°36'0 0.0
2018-Jun-21 20:00N 59°40' E 010°36'0 0.0
2018-Jun-21 19:06N 59°40' E 010°36'0 0.0
2018-Jun-21 19:00N 59°40' E 010°36'0 0.0
2018-Jun-21 18:30N 59°40' E 010°36'0 0.0
2018-Jun-21 17:59N 59°40' E 010°36'0 0.0
2018-Jun-21 16:24N 59°40' E 010°36'1 2.5
2018-Jun-21 16:00N 59°40' E 010°38'1 0.3
2018-Jun-21 12:17N 59°40' E 010°36'0 0.0
2018-Jun-21 11:49N 59°40' E 010°36'0 0.0
2018-Jun-21 11:27N 59°40' E 010°36'0 0.0
2018-Jun-21 07:20N 59°40' E 010°36'514.7
2018-Jun-21 07:01N 59°36' E 010°39'5 3.1
2018-Jun-21 05:30N 59°40' E 010°36'0 0.0
2018-Jun-21 04:59N 59°40' E 010°36'0 0.0
2018-Jun-21 04:30N 59°40' E 010°36'0 0.0
2018-Jun-21 04:00N 59°40' E 010°36'0 0.0
2018-Jun-21 03:30N 59°40' E 010°36'0 0.0
2018-Jun-21 02:57N 59°40' E 010°36'0 0.0
2018-Jun-21 02:27N 59°40' E 010°36'0 0.0
2018-Jun-20 22:45N 59°40' E 010°36'0 0.0
2018-Jun-20 22:22N 59°40' E 010°36'0 0.0
2018-Jun-20 21:56N 59°40' E 010°36'0 0.0
2018-Jun-20 21:11N 59°40' E 010°36'0 0.0
2018-Jun-20 20:58N 59°40' E 010°36'0 0.0
2018-Jun-20 20:30N 59°40' E 010°36'3 5.5
2018-Jun-20 20:00N 59°43' E 010°35'3 3.6
2018-Jun-20 19:15N 59°40' E 010°36'0 0.0
2018-Jun-20 19:00N 59°40' E 010°36'0 0.0
2018-Jun-20 18:22N 59°40' E 010°36'0 0.0
2018-Jun-20 17:54N 59°40' E 010°36'0 0.0
2018-Jun-20 17:25N 59°40' E 010°36'0 0.0
2018-Jun-20 16:58N 59°40' E 010°36'0 0.0
2018-Jun-20 16:29N 59°40' E 010°36'0 0.0
2018-Jun-20 15:58N 59°40' E 010°36'0 0.0
2018-Jun-20 15:28N 59°40' E 010°36'0 0.0
2018-Jun-20 14:59N 59°40' E 010°36'1 0.6
2018-Jun-20 13:56N 59°40' E 010°35'1 1.4
2018-Jun-20 13:29N 59°40' E 010°36'0 0.0
2018-Jun-20 12:58N 59°40' E 010°36'0 0.0
2018-Jun-20 12:30N 59°40' E 010°36'0 0.0
2018-Jun-20 12:00N 59°40' E 010°36'0 0.0
2018-Jun-20 11:27N 59°40' E 010°36'0 0.0
2018-Jun-20 10:59N 59°40' E 010°36'0 0.0
2018-Jun-20 10:29N 59°40' E 010°36'1 2.1
2018-Jun-20 10:00N 59°40' E 010°38'3 5.8
2018-Jun-20 09:31N 59°42' E 010°36'3 5.8
2018-Jun-20 09:00N 59°40' E 010°38'0 0.0
2018-Jun-20 08:30N 59°40' E 010°38'0 0.0
2018-Jun-20 08:00N 59°40' E 010°38'0 0.0
2018-Jun-20 07:30N 59°40' E 010°38'0 0.0
2018-Jun-20 07:00N 59°40' E 010°38'0 0.0
2018-Jun-20 06:30N 59°40' E 010°38'1 1.5
2018-Jun-20 06:00N 59°40' E 010°36'0 0.5
2018-Jun-20 05:27N 59°40' E 010°36'0 0.0
2018-Jun-20 05:00N 59°40' E 010°36'0 0.0
2018-Jun-20 04:29N 59°40' E 010°36'0 0.0
2018-Jun-20 03:54N 59°40' E 010°36'0 0.0
2018-Jun-20 03:30N 59°40' E 010°36'0 0.0
2018-Jun-20 03:00N 59°40' E 010°36'0 0.0
2018-Jun-20 02:21N 59°40' E 010°36'0 0.0
2018-Jun-20 02:00N 59°40' E 010°36'611.3
2018-Jun-20 01:31N 59°35' E 010°38'1121.8
2018-Jun-20 01:00N 59°29' E 010°19'2 3.2
2018-Jun-20 00:31N 59°29' E 010°22'612.1
2018-Jun-20 00:01N 59°32' E 010°33'915.5
2018-Jun-19 23:26N 59°40' E 010°36'0 0.0
2018-Jun-19 23:00N 59°40' E 010°36'0 0.0
2018-Jun-19 22:30N 59°40' E 010°36'0 0.0
2018-Jun-19 21:47N 59°40' E 010°36'0 0.0
2018-Jun-19 21:21N 59°40' E 010°36'0 0.0
2018-Jun-19 20:59N 59°40' E 010°36'2 4.4
2018-Jun-19 20:30N 59°42' E 010°35'510.7
2018-Jun-19 20:00N 59°48' E 010°36'0 0.4
2018-Jun-19 19:30N 59°48' E 010°36'713.9
2018-Jun-19 19:00N 59°40' E 010°36'1 2.0
2018-Jun-19 18:31N 59°40' E 010°37'0 0.1
2018-Jun-19 18:00N 59°40' E 010°38'0 0.0
2018-Jun-19 17:30N 59°40' E 010°38'0 0.0
2018-Jun-19 17:00N 59°40' E 010°38'1 2.5
2018-Jun-19 16:30N 59°40' E 010°35'1 1.0
2018-Jun-19 15:59N 59°40' E 010°36'0 0.0
2018-Jun-19 15:29N 59°40' E 010°36'0 0.0
2018-Jun-19 15:00N 59°40' E 010°36'0 0.0
2018-Jun-19 14:25N 59°40' E 010°36'0 0.0
2018-Jun-19 13:58N 59°40' E 010°36'0 0.0
2018-Jun-19 13:30N 59°40' E 010°36'0 0.0
2018-Jun-19 13:00N 59°40' E 010°36'0 0.0
2018-Jun-19 12:29N 59°40' E 010°36'0 0.0
2018-Jun-19 12:00N 59°40' E 010°36'0 0.0
2018-Jun-19 11:30N 59°40' E 010°36'0 0.0
2018-Jun-19 10:57N 59°40' E 010°36'0 0.0
2018-Jun-19 10:25N 59°40' E 010°36'0 0.0
2018-Jun-19 10:00N 59°40' E 010°36'0 0.0
2018-Jun-19 09:28N 59°40' E 010°36'0 0.0
2018-Jun-19 09:00N 59°40' E 010°36'0 0.0
2018-Jun-19 08:29N 59°40' E 010°36'0 0.0
2018-Jun-19 07:54N 59°40' E 010°36'0 0.0
2018-Jun-19 07:29N 59°40' E 010°36'0 0.0
2018-Jun-19 06:59N 59°40' E 010°36'0 0.0
2018-Jun-19 06:20N 59°40' E 010°36'1 3.1
2018-Jun-19 06:01N 59°40' E 010°38'1 1.7
2018-Jun-19 05:26N 59°40' E 010°36'0 0.0
2018-Jun-19 04:59N 59°40' E 010°36'0 0.0
2018-Jun-19 04:30N 59°40' E 010°36'0 0.0
2018-Jun-19 03:59N 59°40' E 010°36'0 0.0
2018-Jun-19 03:30N 59°40' E 010°36'0 0.0
2018-Jun-19 02:59N 59°40' E 010°36'0 0.0
2018-Jun-19 02:28N 59°40' E 010°36'0 0.0
2018-Jun-19 01:59N 59°40' E 010°36'0 0.0
2018-Jun-19 01:29N 59°40' E 010°36'0 0.0
2018-Jun-19 01:00N 59°40' E 010°36'0 0.0
2018-Jun-19 00:29N 59°40' E 010°36'0 0.0
2018-Jun-19 00:00N 59°40' E 010°36'0 0.0
2018-Jun-18 23:13N 59°40' E 010°36'0 0.0
2018-Jun-18 23:00N 59°40' E 010°36'0 0.0
2018-Jun-18 22:30N 59°40' E 010°36'0 0.0
2018-Jun-18 22:00N 59°40' E 010°36'0 0.0
2018-Jun-18 21:29N 59°40' E 010°36'0 0.0
2018-Jun-18 20:59N 59°40' E 010°36'0 0.0
2018-Jun-18 20:27N 59°40' E 010°36'0 0.0
2018-Jun-18 19:59N 59°40' E 010°36'0 0.0
2018-Jun-18 19:27N 59°40' E 010°36'0 0.0
2018-Jun-18 18:58N 59°40' E 010°36'0 0.0
2018-Jun-18 18:28N 59°40' E 010°36'0 0.0
2018-Jun-18 17:57N 59°40' E 010°36'0 0.0
2018-Jun-18 17:28N 59°40' E 010°36'0 0.0
2018-Jun-18 16:59N 59°40' E 010°36'0 0.0
2018-Jun-18 16:29N 59°40' E 010°36'0 0.0
2018-Jun-18 15:59N 59°40' E 010°36'0 0.0
2018-Jun-18 15:30N 59°40' E 010°36'0 0.0
2018-Jun-18 14:57N 59°40' E 010°36'0 0.0
2018-Jun-18 14:19N 59°40' E 010°36'0 0.0
2018-Jun-18 13:53N 59°40' E 010°36'1028.2
2018-Jun-18 13:31N 59°30' E 010°35'1019.5
2018-Jun-18 13:00N 59°21' E 010°28'0 0.1
2018-Jun-18 12:30N 59°21' E 010°28'816.9
2018-Jun-18 12:01N 59°29' E 010°34'713.8
2018-Jun-18 11:30N 59°36' E 010°39'5 9.8
2018-Jun-18 10:58N 59°40' E 010°36'0 0.0
2018-Jun-18 10:26N 59°40' E 010°36'0 0.0
2018-Jun-18 10:00N 59°40' E 010°36'1 0.3
2018-Jun-18 07:46N 59°40' E 010°35'1 2.6
2018-Jun-18 07:30N 59°40' E 010°36'0 0.0
2018-Jun-18 07:00N 59°40' E 010°36'0 0.0
2018-Jun-18 06:29N 59°40' E 010°36'0 0.0
2018-Jun-18 06:00N 59°40' E 010°36'0 0.0
2018-Jun-18 05:30N 59°40' E 010°36'0 0.0
2018-Jun-18 04:58N 59°40' E 010°36'0 0.0
2018-Jun-18 04:30N 59°40' E 010°36'0 0.0
2018-Jun-18 03:21N 59°40' E 010°36'0 0.0
2018-Jun-18 03:00N 59°40' E 010°36'0 0.0
2018-Jun-18 02:13N 59°40' E 010°36'0 0.0
2018-Jun-18 02:00N 59°40' E 010°36'0 0.0
2018-Jun-18 01:30N 59°40' E 010°36'0 0.0
2018-Jun-18 00:59N 59°40' E 010°36'0 0.0
2018-Jun-18 00:29N 59°40' E 010°36'0 0.0
2018-Jun-17 23:59N 59°40' E 010°36'0 0.0
2018-Jun-17 23:28N 59°40' E 010°36'0 0.0
2018-Jun-17 23:00N 59°40' E 010°36'0 0.0
2018-Jun-17 22:27N 59°40' E 010°36'0 0.0
2018-Jun-17 21:59N 59°40' E 010°36'0 0.0
2018-Jun-17 21:18N 59°40' E 010°36'0 0.0
2018-Jun-17 20:58N 59°40' E 010°36'0 0.0
2018-Jun-17 20:18N 59°40' E 010°36'0 0.0
2018-Jun-17 20:00N 59°40' E 010°36'0 0.0
2018-Jun-17 19:30N 59°40' E 010°36'0 0.0
2018-Jun-17 17:53N 59°40' E 010°36'0 0.0
2018-Jun-17 17:30N 59°40' E 010°36'0 0.0
2018-Jun-17 16:56N 59°40' E 010°36'0 0.0
2018-Jun-17 16:30N 59°40' E 010°36'0 0.0
2018-Jun-17 15:57N 59°40' E 010°36'0 0.0
2018-Jun-17 15:18N 59°40' E 010°36'0 0.0
2018-Jun-17 12:46N 59°40' E 010°36'0 0.0
2018-Jun-17 07:41N 59°40' E 010°36'0 0.0
2018-Jun-17 07:26N 59°40' E 010°36'0 0.0
2018-Jun-17 06:55N 59°40' E 010°36'0 0.0
2018-Jun-17 05:44N 59°40' E 010°36'0 0.0
2018-Jun-17 00:06N 59°40' E 010°36'0 0.0
2018-Jun-16 23:58N 59°40' E 010°36'0 0.0
2018-Jun-16 23:23N 59°40' E 010°36'0 0.0
2018-Jun-16 22:55N 59°40' E 010°36'0 0.0
2018-Jun-16 21:49N 59°40' E 010°36'0 0.0
2018-Jun-16 21:27N 59°40' E 010°36'0 0.0
2018-Jun-16 20:59N 59°40' E 010°36'0 0.0
2018-Jun-16 20:24N 59°40' E 010°36'0 0.6
2018-Jun-16 20:01N 59°40' E 010°36'815.3
2018-Jun-16 19:31N 59°33' E 010°34'4 9.0
2018-Jun-16 19:01N 59°31' E 010°26'4 8.4
2018-Jun-16 18:31N 59°32' E 010°18'917.1
2018-Jun-16 18:01N 59°33' E 010°35'1530.4
2018-Jun-16 17:30N 59°48' E 010°35'510.4
2018-Jun-16 17:00N 59°52' E 010°40'1 1.9
2018-Jun-16 16:31N 59°53' E 010°42'2 3.9
2018-Jun-16 15:59N 59°53' E 010°46'918.5
2018-Jun-16 15:30N 59°46' E 010°35'6 9.7
2018-Jun-16 14:56N 59°40' E 010°36'0 0.0
2018-Jun-16 14:30N 59°40' E 010°36'0 0.0
2018-Jun-16 13:57N 59°40' E 010°36'0 0.0
2018-Jun-16 13:24N 59°40' E 010°36'0 0.0
2018-Jun-16 13:00N 59°40' E 010°36'0 0.0
2018-Jun-16 12:31N 59°40' E 010°36'0 0.3
2018-Jun-16 11:19N 59°40' E 010°36'1 3.6
2018-Jun-16 11:00N 59°40' E 010°38'0 0.0
2018-Jun-16 10:30N 59°40' E 010°38'1 1.5
2018-Jun-16 10:01N 59°40' E 010°36'0 0.5
2018-Jun-16 09:29N 59°40' E 010°36'0 0.0
2018-Jun-16 08:55N 59°40' E 010°36'0 0.0
2018-Jun-16 08:30N 59°40' E 010°36'0 0.0
2018-Jun-16 07:58N 59°40' E 010°36'0 0.0
2018-Jun-16 07:28N 59°40' E 010°36'0 0.0
2018-Jun-16 07:00N 59°40' E 010°36'0 0.0
2018-Jun-16 06:29N 59°40' E 010°36'0 0.0
2018-Jun-16 06:00N 59°40' E 010°36'0 0.0
2018-Jun-16 05:26N 59°40' E 010°36'0 0.0
2018-Jun-16 05:00N 59°40' E 010°36'0 0.0
2018-Jun-16 04:28N 59°40' E 010°36'0 0.0
2018-Jun-16 04:00N 59°40' E 010°36'0 0.0
2018-Jun-16 03:30N 59°40' E 010°36'0 0.0
2018-Jun-16 03:00N 59°40' E 010°36'0 0.0
2018-Jun-16 02:26N 59°40' E 010°36'0 0.0
2018-Jun-16 01:59N 59°40' E 010°36'0 0.0
2018-Jun-16 01:28N 59°40' E 010°36'0 0.0
2018-Jun-16 00:58N 59°40' E 010°36'0 0.0
2018-Jun-16 00:30N 59°40' E 010°36'0 0.0
2018-Jun-16 00:00N 59°40' E 010°36'0 0.0
2018-Jun-15 23:26N 59°40' E 010°36'0 0.0
2018-Jun-15 22:55N 59°40' E 010°36'0 0.0
2018-Jun-15 22:30N 59°40' E 010°36'0 0.0
2018-Jun-15 21:58N 59°40' E 010°36'0 0.0
2018-Jun-15 21:30N 59°40' E 010°36'0 0.0
2018-Jun-15 21:00N 59°40' E 010°36'0 0.0
2018-Jun-15 20:26N 59°40' E 010°36'0 0.0
2018-Jun-15 19:44N 59°40' E 010°36'0 0.0
2018-Jun-15 19:28N 59°40' E 010°36'0 0.0
2018-Jun-15 18:49N 59°40' E 010°36'0 0.0
2018-Jun-15 18:17N 59°40' E 010°36'0 0.0
2018-Jun-15 17:45N 59°40' E 010°36'0 0.0
2018-Jun-15 17:26N 59°40' E 010°36'0 0.0
2018-Jun-15 16:57N 59°40' E 010°36'0 0.0
2018-Jun-15 16:30N 59°40' E 010°36'0 0.0
2018-Jun-15 15:59N 59°40' E 010°36'0 0.0
2018-Jun-15 15:28N 59°40' E 010°36'0 0.0
2018-Jun-15 14:54N 59°40' E 010°36'0 0.0
2018-Jun-15 14:29N 59°40' E 010°36'0 0.0
2018-Jun-15 14:00N 59°40' E 010°36'0 0.0
2018-Jun-15 13:16N 59°40' E 010°36'0 0.0
2018-Jun-15 12:57N 59°40' E 010°36'0 0.0
2018-Jun-15 12:29N 59°40' E 010°36'0 0.0
2018-Jun-15 11:59N 59°40' E 010°36'0 0.0
2018-Jun-15 11:27N 59°40' E 010°36'0 0.0
2018-Jun-15 10:54N 59°40' E 010°36'0 0.0
2018-Jun-15 10:22N 59°40' E 010°36'0 0.0
2018-Jun-15 09:57N 59°40' E 010°36'0 0.0
2018-Jun-15 09:27N 59°40' E 010°36'0 0.0
2018-Jun-15 09:00N 59°40' E 010°36'0 0.0
2018-Jun-15 08:27N 59°40' E 010°36'920.4
2018-Jun-15 08:01N 59°32' E 010°41'0 0.1
2018-Jun-15 07:30N 59°32' E 010°41'0 0.1
2018-Jun-15 07:00N 59°32' E 010°41'913.3
2018-Jun-15 06:19N 59°40' E 010°36'0 0.0
2018-Jun-15 06:00N 59°40' E 010°36'0 0.0
2018-Jun-15 05:30N 59°40' E 010°36'0 0.0
2018-Jun-15 04:59N 59°40' E 010°36'613.4
2018-Jun-15 04:31N 59°34' E 010°38'3 6.2
2018-Jun-15 04:00N 59°31' E 010°41'915.0
2018-Jun-15 03:23N 59°40' E 010°36'0 0.0
2018-Jun-15 02:59N 59°40' E 010°36'0 0.0
2018-Jun-15 02:28N 59°40' E 010°36'0 0.0
2018-Jun-15 01:59N 59°40' E 010°36'0 0.0
2018-Jun-15 01:29N 59°40' E 010°36'0 0.0
2018-Jun-15 00:57N 59°40' E 010°36'0 0.0
2018-Jun-15 00:29N 59°40' E 010°36'0 0.0
2018-Jun-15 00:00N 59°40' E 010°36'0 0.0
2018-Jun-14 23:30N 59°40' E 010°36'0 0.0
2018-Jun-14 22:58N 59°40' E 010°36'0 0.0
2018-Jun-14 22:25N 59°40' E 010°36'0 0.0
2018-Jun-14 21:53N 59°40' E 010°36'0 0.0
2018-Jun-14 21:25N 59°40' E 010°36'0 0.0
2018-Jun-14 21:00N 59°40' E 010°36'0 0.0
2018-Jun-14 20:30N 59°40' E 010°36'0 0.0
2018-Jun-14 19:58N 59°40' E 010°36'0 0.0
2018-Jun-14 19:25N 59°40' E 010°36'0 0.0
2018-Jun-14 19:00N 59°40' E 010°36'0 0.0
2018-Jun-14 18:24N 59°40' E 010°36'0 0.0
2018-Jun-14 17:54N 59°40' E 010°36'1 1.8
2018-Jun-14 17:30N 59°40' E 010°37'1020.6
2018-Jun-14 17:01N 59°32' E 010°25'815.7
2018-Jun-14 16:30N 59°40' E 010°24'1 0.4
2018-Jun-14 15:03N 59°40' E 010°24'236.0
2018-Jun-14 14:59N 59°38' E 010°25'816.2
2018-Jun-14 14:31N 59°32' E 010°34'816.4
2018-Jun-14 14:00N 59°40' E 010°36'0 0.0
2018-Jun-14 13:28N 59°40' E 010°36'0 0.0
2018-Jun-14 13:00N 59°40' E 010°36'0 0.0
2018-Jun-14 12:28N 59°40' E 010°36'0 0.1
2018-Jun-14 12:00N 59°40' E 010°36'917.2
2018-Jun-14 11:30N 59°49' E 010°37'0 0.0
2018-Jun-14 11:00N 59°49' E 010°37'0 0.0
2018-Jun-14 10:30N 59°49' E 010°37'916.3
2018-Jun-14 09:59N 59°40' E 010°36'0 0.0
2018-Jun-14 09:19N 59°40' E 010°36'0 0.0
2018-Jun-14 09:00N 59°40' E 010°36'1 1.7
2018-Jun-14 08:30N 59°40' E 010°37'0 0.4
2018-Jun-14 08:00N 59°40' E 010°38'1 1.9
2018-Jun-14 07:29N 59°40' E 010°36'0 0.0
2018-Jun-14 06:59N 59°40' E 010°36'0 0.0
2018-Jun-14 06:30N 59°40' E 010°36'0 0.0
2018-Jun-14 05:58N 59°40' E 010°36'0 0.0
2018-Jun-14 05:29N 59°40' E 010°36'0 0.0
2018-Jun-14 04:59N 59°40' E 010°36'0 0.0
2018-Jun-14 04:30N 59°40' E 010°36'0 0.0
2018-Jun-14 03:59N 59°40' E 010°36'0 0.0
2018-Jun-14 03:30N 59°40' E 010°36'0 0.0
2018-Jun-14 03:00N 59°40' E 010°36'0 0.0
2018-Jun-14 02:28N 59°40' E 010°36'0 0.0
2018-Jun-14 02:00N 59°40' E 010°36'0 0.0
2018-Jun-14 01:29N 59°40' E 010°36'0 0.0
2018-Jun-14 00:48N 59°40' E 010°36'0 0.0
2018-Jun-14 00:30N 59°40' E 010°36'0 0.0
2018-Jun-14 00:00N 59°40' E 010°36'0 0.0
2018-Jun-13 23:30N 59°40' E 010°36'0 0.0
2018-Jun-13 23:00N 59°40' E 010°36'0 0.0
2018-Jun-13 22:29N 59°40' E 010°36'0 0.0
2018-Jun-13 22:00N 59°40' E 010°36'0 0.0
2018-Jun-13 21:27N 59°40' E 010°36'0 0.0
2018-Jun-13 21:00N 59°40' E 010°36'0 0.0
2018-Jun-13 20:30N 59°40' E 010°36'0 0.0
2018-Jun-13 19:24N 59°40' E 010°36'0 0.0
2018-Jun-13 18:37N 59°40' E 010°36'0 0.0
2018-Jun-13 18:28N 59°40' E 010°36'0 0.1
2018-Jun-13 17:58N 59°40' E 010°36'2 3.9
2018-Jun-13 17:30N 59°42' E 010°36'2 4.6
2018-Jun-13 17:00N 59°40' E 010°36'0 0.7
2018-Jun-13 16:21N 59°40' E 010°36'0 0.0
2018-Jun-13 15:52N 59°40' E 010°36'0 0.0
2018-Jun-13 14:48N 59°40' E 010°36'0 0.0
2018-Jun-13 14:30N 59°40' E 010°36'0 0.0
2018-Jun-13 12:06N 59°40' E 010°36'0 0.1
2018-Jun-13 11:54N 59°40' E 010°36'1 1.4
2018-Jun-13 11:30N 59°41' E 010°37'0 0.0
2018-Jun-13 11:00N 59°41' E 010°37'0 0.0
2018-Jun-13 10:30N 59°41' E 010°37'0 0.0
2018-Jun-13 10:00N 59°41' E 010°37'0 0.0
2018-Jun-13 09:30N 59°41' E 010°37'917.7
2018-Jun-13 09:01N 59°32' E 010°38'1631.3
2018-Jun-13 08:30N 59°16' E 010°31'1 3.0
2018-Jun-13 08:00N 59°16' E 010°29'3 6.2
2018-Jun-13 07:30N 59°18' E 010°33'1631.9
2018-Jun-13 07:01N 59°34' E 010°37'7 3.8
2018-Jun-13 05:11N 59°40' E 010°36'0 0.0
2018-Jun-13 04:58N 59°40' E 010°36'0 0.0
2018-Jun-13 04:24N 59°40' E 010°36'0 0.0
2018-Jun-13 04:00N 59°40' E 010°36'0 0.0
2018-Jun-13 03:29N 59°40' E 010°36'0 0.0
2018-Jun-13 02:59N 59°40' E 010°36'0 0.0
2018-Jun-13 02:28N 59°40' E 010°36'0 0.0
2018-Jun-13 02:00N 59°40' E 010°36'0 0.0
2018-Jun-13 01:30N 59°40' E 010°36'0 0.0
2018-Jun-13 00:58N 59°40' E 010°36'0 0.0
2018-Jun-13 00:27N 59°40' E 010°36'0 0.0
2018-Jun-13 00:00N 59°40' E 010°36'0 0.0
2018-Jun-12 23:22N 59°40' E 010°36'0 0.0
2018-Jun-12 23:00N 59°40' E 010°36'0 0.0
2018-Jun-12 22:28N 59°40' E 010°36'0 0.0
2018-Jun-12 19:50N 59°40' E 010°36'0 0.0
2018-Jun-12 19:30N 59°40' E 010°36'0 0.0
2018-Jun-12 18:59N 59°40' E 010°36'0 0.0
2018-Jun-12 18:28N 59°40' E 010°36'0 0.0
2018-Jun-12 17:59N 59°40' E 010°36'0 0.0
2018-Jun-12 17:30N 59°40' E 010°36'3 1.6
2018-Jun-12 15:29N 59°43' E 010°32'1319.7
2018-Jun-12 14:51N 59°54' E 010°44'3 3.2
2018-Jun-12 14:04N 59°55' E 010°39'121.3
2018-Jun-12 14:00N 59°53' E 010°39'1311.7
2018-Jun-12 12:54N 59°40' E 010°36'0 0.0
2018-Jun-12 11:50N 59°40' E 010°36'0 0.0
2018-Jun-12 11:30N 59°40' E 010°36'0 0.0
2018-Jun-12 10:56N 59°40' E 010°36'0 0.0
2018-Jun-12 10:25N 59°40' E 010°36'1127.4
2018-Jun-12 10:00N 59°52' E 010°38'3 3.9
2018-Jun-12 09:14N 59°55' E 010°39'729.1
2018-Jun-12 09:01N 59°48' E 010°35'714.6
2018-Jun-12 08:30N 59°41' E 010°37'1 0.4
2018-Jun-12 06:53N 59°40' E 010°36'  
Track history (hours):
 
Tides and Currents Weather Stations Pressure Air Temp Water Temp Dewpoint Dewpoint Depression Visibility Wind Speed Wind Dir Waves Ship Positions

Rs KlaveneSS Marine

Last reported at 2018-Jun-22 02:00 UTC. Time now 2018-Jun-22 01:59 UTC.
Position N 59°40' E 010°36'.

Length 17 m; draft 1 m.

Type: SAR. MMSI: 257928800.

Date/timePositionNaut miles runAvg speedWind from/ knotsBaromVisibWave heightAir tempDewpointWater temp
2018-Jun-22 02:00N 59°40' E 010°36'0 0.0
2018-Jun-22 01:30N 59°40' E 010°36'0 0.0
2018-Jun-22 00:51N 59°40' E 010°36'0 0.0
2018-Jun-22 00:26N 59°40' E 010°36'0 0.0
2018-Jun-21 23:59N 59°40' E 010°36'0 0.0
2018-Jun-21 23:12N 59°40' E 010°36'0 0.0
2018-Jun-21 22:59N 59°40' E 010°36'0 0.0
2018-Jun-21 22:28N 59°40' E 010°36'0 0.0
2018-Jun-21 22:00N 59°40' E 010°36'0 0.0
2018-Jun-21 21:26N 59°40' E 010°36'0 0.0
2018-Jun-21 20:59N 59°40' E 010°36'0 0.0
2018-Jun-21 20:30N 59°40' E 010°36'0 0.0
2018-Jun-21 20:00N 59°40' E 010°36'0 0.0
2018-Jun-21 19:06N 59°40' E 010°36'0 0.0
2018-Jun-21 19:00N 59°40' E 010°36'0 0.0
2018-Jun-21 18:30N 59°40' E 010°36'0 0.0
2018-Jun-21 17:59N 59°40' E 010°36'0 0.0
2018-Jun-21 16:24N 59°40' E 010°36'1 2.5
2018-Jun-21 16:00N 59°40' E 010°38'1 0.3
2018-Jun-21 12:17N 59°40' E 010°36'0 0.0
2018-Jun-21 11:49N 59°40' E 010°36'0 0.0
2018-Jun-21 11:27N 59°40' E 010°36'0 0.0
2018-Jun-21 07:20N 59°40' E 010°36'514.7
2018-Jun-21 07:01N 59°36' E 010°39'5 3.1
2018-Jun-21 05:30N 59°40' E 010°36'0 0.0
2018-Jun-21 04:59N 59°40' E 010°36'0 0.0
2018-Jun-21 04:30N 59°40' E 010°36'0 0.0
2018-Jun-21 04:00N 59°40' E 010°36'0 0.0
2018-Jun-21 03:30N 59°40' E 010°36'0 0.0
2018-Jun-21 02:57N 59°40' E 010°36'0 0.0
2018-Jun-21 02:27N 59°40' E 010°36'0 0.0
2018-Jun-20 22:45N 59°40' E 010°36'0 0.0
2018-Jun-20 22:22N 59°40' E 010°36'0 0.0
2018-Jun-20 21:56N 59°40' E 010°36'0 0.0
2018-Jun-20 21:11N 59°40' E 010°36'0 0.0
2018-Jun-20 20:58N 59°40' E 010°36'0 0.0
2018-Jun-20 20:30N 59°40' E 010°36'3 5.5
2018-Jun-20 20:00N 59°43' E 010°35'3 3.6
2018-Jun-20 19:15N 59°40' E 010°36'0 0.0
2018-Jun-20 19:00N 59°40' E 010°36'0 0.0
2018-Jun-20 18:22N 59°40' E 010°36'0 0.0
2018-Jun-20 17:54N 59°40' E 010°36'0 0.0
2018-Jun-20 17:25N 59°40' E 010°36'0 0.0
2018-Jun-20 16:58N 59°40' E 010°36'0 0.0
2018-Jun-20 16:29N 59°40' E 010°36'0 0.0
2018-Jun-20 15:58N 59°40' E 010°36'0 0.0
2018-Jun-20 15:28N 59°40' E 010°36'0 0.0
2018-Jun-20 14:59N 59°40' E 010°36'1 0.6
2018-Jun-20 13:56N 59°40' E 010°35'1 1.4
2018-Jun-20 13:29N 59°40' E 010°36'0 0.0
2018-Jun-20 12:58N 59°40' E 010°36'0 0.0
2018-Jun-20 12:30N 59°40' E 010°36'0 0.0
2018-Jun-20 12:00N 59°40' E 010°36'0 0.0
2018-Jun-20 11:27N 59°40' E 010°36'0 0.0
2018-Jun-20 10:59N 59°40' E 010°36'0 0.0
2018-Jun-20 10:29N 59°40' E 010°36'1 2.1
2018-Jun-20 10:00N 59°40' E 010°38'3 5.8
2018-Jun-20 09:31N 59°42' E 010°36'3 5.8
2018-Jun-20 09:00N 59°40' E 010°38'0 0.0
2018-Jun-20 08:30N 59°40' E 010°38'0 0.0
2018-Jun-20 08:00N 59°40' E 010°38'0 0.0
2018-Jun-20 07:30N 59°40' E 010°38'0 0.0
2018-Jun-20 07:00N 59°40' E 010°38'0 0.0
2018-Jun-20 06:30N 59°40' E 010°38'1 1.5
2018-Jun-20 06:00N 59°40' E 010°36'0 0.5
2018-Jun-20 05:27N 59°40' E 010°36'0 0.0
2018-Jun-20 05:00N 59°40' E 010°36'0 0.0
2018-Jun-20 04:29N 59°40' E 010°36'0 0.0
2018-Jun-20 03:54N 59°40' E 010°36'0 0.0
2018-Jun-20 03:30N 59°40' E 010°36'0 0.0
2018-Jun-20 03:00N 59°40' E 010°36'0 0.0
2018-Jun-20 02:21N 59°40' E 010°36'0 0.0
2018-Jun-20 02:00N 59°40' E 010°36'611.3
2018-Jun-20 01:31N 59°35' E 010°38'1121.8
2018-Jun-20 01:00N 59°29' E 010°19'2 3.2
2018-Jun-20 00:31N 59°29' E 010°22'612.1
2018-Jun-20 00:01N 59°32' E 010°33'915.5
2018-Jun-19 23:26N 59°40' E 010°36'0 0.0
2018-Jun-19 23:00N 59°40' E 010°36'0 0.0
2018-Jun-19 22:30N 59°40' E 010°36'0 0.0
2018-Jun-19 21:47N 59°40' E 010°36'0 0.0
2018-Jun-19 21:21N 59°40' E 010°36'0 0.0
2018-Jun-19 20:59N 59°40' E 010°36'2 4.4
2018-Jun-19 20:30N 59°42' E 010°35'510.7
2018-Jun-19 20:00N 59°48' E 010°36'0 0.4
2018-Jun-19 19:30N 59°48' E 010°36'713.9
2018-Jun-19 19:00N 59°40' E 010°36'1 2.0
2018-Jun-19 18:31N 59°40' E 010°37'0 0.1
2018-Jun-19 18:00N 59°40' E 010°38'0 0.0
2018-Jun-19 17:30N 59°40' E 010°38'0 0.0
2018-Jun-19 17:00N 59°40' E 010°38'1 2.5
2018-Jun-19 16:30N 59°40' E 010°35'1 1.0
2018-Jun-19 15:59N 59°40' E 010°36'0 0.0
2018-Jun-19 15:29N 59°40' E 010°36'0 0.0
2018-Jun-19 15:00N 59°40' E 010°36'0 0.0
2018-Jun-19 14:25N 59°40' E 010°36'0 0.0
2018-Jun-19 13:58N 59°40' E 010°36'0 0.0
2018-Jun-19 13:30N 59°40' E 010°36'0 0.0
2018-Jun-19 13:00N 59°40' E 010°36'0 0.0
2018-Jun-19 12:29N 59°40' E 010°36'0 0.0
2018-Jun-19 12:00N 59°40' E 010°36'0 0.0
2018-Jun-19 11:30N 59°40' E 010°36'0 0.0
2018-Jun-19 10:57N 59°40' E 010°36'0 0.0
2018-Jun-19 10:25N 59°40' E 010°36'0 0.0
2018-Jun-19 10:00N 59°40' E 010°36'0 0.0
2018-Jun-19 09:28N 59°40' E 010°36'0 0.0
2018-Jun-19 09:00N 59°40' E 010°36'0 0.0
2018-Jun-19 08:29N 59°40' E 010°36'0 0.0
2018-Jun-19 07:54N 59°40' E 010°36'0 0.0
2018-Jun-19 07:29N 59°40' E 010°36'0 0.0
2018-Jun-19 06:59N 59°40' E 010°36'0 0.0
2018-Jun-19 06:20N 59°40' E 010°36'1 3.1
2018-Jun-19 06:01N 59°40' E 010°38'1 1.7
2018-Jun-19 05:26N 59°40' E 010°36'0 0.0
2018-Jun-19 04:59N 59°40' E 010°36'0 0.0
2018-Jun-19 04:30N 59°40' E 010°36'0 0.0
2018-Jun-19 03:59N 59°40' E 010°36'0 0.0
2018-Jun-19 03:30N 59°40' E 010°36'0 0.0
2018-Jun-19 02:59N 59°40' E 010°36'0 0.0
2018-Jun-19 02:28N 59°40' E 010°36'0 0.0
2018-Jun-19 01:59N 59°40' E 010°36'0 0.0
2018-Jun-19 01:29N 59°40' E 010°36'0 0.0
2018-Jun-19 01:00N 59°40' E 010°36'0 0.0
2018-Jun-19 00:29N 59°40' E 010°36'0 0.0
2018-Jun-19 00:00N 59°40' E 010°36'0 0.0
2018-Jun-18 23:13N 59°40' E 010°36'0 0.0
2018-Jun-18 23:00N 59°40' E 010°36'0 0.0
2018-Jun-18 22:30N 59°40' E 010°36'0 0.0
2018-Jun-18 22:00N 59°40' E 010°36'0 0.0
2018-Jun-18 21:29N 59°40' E 010°36'0 0.0
2018-Jun-18 20:59N 59°40' E 010°36'0 0.0
2018-Jun-18 20:27N 59°40' E 010°36'0 0.0
2018-Jun-18 19:59N 59°40' E 010°36'0 0.0
2018-Jun-18 19:27N 59°40' E 010°36'0 0.0
2018-Jun-18 18:58N 59°40' E 010°36'0 0.0
2018-Jun-18 18:28N 59°40' E 010°36'0 0.0
2018-Jun-18 17:57N 59°40' E 010°36'0 0.0
2018-Jun-18 17:28N 59°40' E 010°36'0 0.0
2018-Jun-18 16:59N 59°40' E 010°36'0 0.0
2018-Jun-18 16:29N 59°40' E 010°36'0 0.0
2018-Jun-18 15:59N 59°40' E 010°36'0 0.0
2018-Jun-18 15:30N 59°40' E 010°36'0 0.0
2018-Jun-18 14:57N 59°40' E 010°36'0 0.0
2018-Jun-18 14:19N 59°40' E 010°36'0 0.0
2018-Jun-18 13:53N 59°40' E 010°36'1028.2
2018-Jun-18 13:31N 59°30' E 010°35'1019.5
2018-Jun-18 13:00N 59°21' E 010°28'0 0.1
2018-Jun-18 12:30N 59°21' E 010°28'816.9
2018-Jun-18 12:01N 59°29' E 010°34'713.8
2018-Jun-18 11:30N 59°36' E 010°39'5 9.8
2018-Jun-18 10:58N 59°40' E 010°36'0 0.0
2018-Jun-18 10:26N 59°40' E 010°36'0 0.0
2018-Jun-18 10:00N 59°40' E 010°36'1 0.3
2018-Jun-18 07:46N 59°40' E 010°35'1 2.6
2018-Jun-18 07:30N 59°40' E 010°36'0 0.0
2018-Jun-18 07:00N 59°40' E 010°36'0 0.0
2018-Jun-18 06:29N 59°40' E 010°36'0 0.0
2018-Jun-18 06:00N 59°40' E 010°36'0 0.0
2018-Jun-18 05:30N 59°40' E 010°36'0 0.0
2018-Jun-18 04:58N 59°40' E 010°36'0 0.0
2018-Jun-18 04:30N 59°40' E 010°36'0 0.0
2018-Jun-18 03:21N 59°40' E 010°36'0 0.0
2018-Jun-18 03:00N 59°40' E 010°36'0 0.0
2018-Jun-18 02:13N 59°40' E 010°36'0 0.0
2018-Jun-18 02:00N 59°40' E 010°36'0 0.0
2018-Jun-18 01:30N 59°40' E 010°36'0 0.0
2018-Jun-18 00:59N 59°40' E 010°36'0 0.0
2018-Jun-18 00:29N 59°40' E 010°36'0 0.0
2018-Jun-17 23:59N 59°40' E 010°36'0 0.0
2018-Jun-17 23:28N 59°40' E 010°36'0 0.0
2018-Jun-17 23:00N 59°40' E 010°36'0 0.0
2018-Jun-17 22:27N 59°40' E 010°36'0 0.0
2018-Jun-17 21:59N 59°40' E 010°36'0 0.0
2018-Jun-17 21:18N 59°40' E 010°36'0 0.0
2018-Jun-17 20:58N 59°40' E 010°36'0 0.0
2018-Jun-17 20:18N 59°40' E 010°36'0 0.0
2018-Jun-17 20:00N 59°40' E 010°36'0 0.0
2018-Jun-17 19:30N 59°40' E 010°36'0 0.0
2018-Jun-17 17:53N 59°40' E 010°36'0 0.0
2018-Jun-17 17:30N 59°40' E 010°36'0 0.0
2018-Jun-17 16:56N 59°40' E 010°36'0 0.0
2018-Jun-17 16:30N 59°40' E 010°36'0 0.0
2018-Jun-17 15:57N 59°40' E 010°36'0 0.0
2018-Jun-17 15:18N 59°40' E 010°36'0 0.0
2018-Jun-17 12:46N 59°40' E 010°36'0 0.0
2018-Jun-17 07:41N 59°40' E 010°36'0 0.0
2018-Jun-17 07:26N 59°40' E 010°36'0 0.0
2018-Jun-17 06:55N 59°40' E 010°36'0 0.0
2018-Jun-17 05:44N 59°40' E 010°36'0 0.0
2018-Jun-17 00:06N 59°40' E 010°36'0 0.0
2018-Jun-16 23:58N 59°40' E 010°36'0 0.0
2018-Jun-16 23:23N 59°40' E 010°36'0 0.0
2018-Jun-16 22:55N 59°40' E 010°36'0 0.0
2018-Jun-16 21:49N 59°40' E 010°36'0 0.0
2018-Jun-16 21:27N 59°40' E 010°36'0 0.0
2018-Jun-16 20:59N 59°40' E 010°36'0 0.0
2018-Jun-16 20:24N 59°40' E 010°36'0 0.6
2018-Jun-16 20:01N 59°40' E 010°36'815.3
2018-Jun-16 19:31N 59°33' E 010°34'4 9.0
2018-Jun-16 19:01N 59°31' E 010°26'4 8.4
2018-Jun-16 18:31N 59°32' E 010°18'917.1
2018-Jun-16 18:01N 59°33' E 010°35'1530.4
2018-Jun-16 17:30N 59°48' E 010°35'510.4
2018-Jun-16 17:00N 59°52' E 010°40'1 1.9
2018-Jun-16 16:31N 59°53' E 010°42'2 3.9
2018-Jun-16 15:59N 59°53' E 010°46'918.5
2018-Jun-16 15:30N 59°46' E 010°35'6 9.7
2018-Jun-16 14:56N 59°40' E 010°36'0 0.0
2018-Jun-16 14:30N 59°40' E 010°36'0 0.0
2018-Jun-16 13:57N 59°40' E 010°36'0 0.0
2018-Jun-16 13:24N 59°40' E 010°36'0 0.0
2018-Jun-16 13:00N 59°40' E 010°36'0 0.0
2018-Jun-16 12:31N 59°40' E 010°36'0 0.3
2018-Jun-16 11:19N 59°40' E 010°36'1 3.6
2018-Jun-16 11:00N 59°40' E 010°38'0 0.0
2018-Jun-16 10:30N 59°40' E 010°38'1 1.5
2018-Jun-16 10:01N 59°40' E 010°36'0 0.5
2018-Jun-16 09:29N 59°40' E 010°36'0 0.0
2018-Jun-16 08:55N 59°40' E 010°36'0 0.0
2018-Jun-16 08:30N 59°40' E 010°36'0 0.0
2018-Jun-16 07:58N 59°40' E 010°36'0 0.0
2018-Jun-16 07:28N 59°40' E 010°36'0 0.0
2018-Jun-16 07:00N 59°40' E 010°36'0 0.0
2018-Jun-16 06:29N 59°40' E 010°36'0 0.0
2018-Jun-16 06:00N 59°40' E 010°36'0 0.0
2018-Jun-16 05:26N 59°40' E 010°36'0 0.0
2018-Jun-16 05:00N 59°40' E 010°36'0 0.0
2018-Jun-16 04:28N 59°40' E 010°36'0 0.0
2018-Jun-16 04:00N 59°40' E 010°36'0 0.0
2018-Jun-16 03:30N 59°40' E 010°36'0 0.0
2018-Jun-16 03:00N 59°40' E 010°36'0 0.0
2018-Jun-16 02:26N 59°40' E 010°36'0 0.0
2018-Jun-16 01:59N 59°40' E 010°36'0 0.0
2018-Jun-16 01:28N 59°40' E 010°36'0 0.0
2018-Jun-16 00:58N 59°40' E 010°36'0 0.0
2018-Jun-16 00:30N 59°40' E 010°36'0 0.0
2018-Jun-16 00:00N 59°40' E 010°36'0 0.0
2018-Jun-15 23:26N 59°40' E 010°36'0 0.0
2018-Jun-15 22:55N 59°40' E 010°36'0 0.0
2018-Jun-15 22:30N 59°40' E 010°36'0 0.0
2018-Jun-15 21:58N 59°40' E 010°36'0 0.0
2018-Jun-15 21:30N 59°40' E 010°36'0 0.0
2018-Jun-15 21:00N 59°40' E 010°36'0 0.0
2018-Jun-15 20:26N 59°40' E 010°36'0 0.0
2018-Jun-15 19:44N 59°40' E 010°36'0 0.0
2018-Jun-15 19:28N 59°40' E 010°36'0 0.0
2018-Jun-15 18:49N 59°40' E 010°36'0 0.0
2018-Jun-15 18:17N 59°40' E 010°36'0 0.0
2018-Jun-15 17:45N 59°40' E 010°36'0 0.0
2018-Jun-15 17:26N 59°40' E 010°36'0 0.0
2018-Jun-15 16:57N 59°40' E 010°36'0 0.0
2018-Jun-15 16:30N 59°40' E 010°36'0 0.0
2018-Jun-15 15:59N 59°40' E 010°36'0 0.0
2018-Jun-15 15:28N 59°40' E 010°36'0 0.0
2018-Jun-15 14:54N 59°40' E 010°36'0 0.0
2018-Jun-15 14:29N 59°40' E 010°36'0 0.0
2018-Jun-15 14:00N 59°40' E 010°36'0 0.0
2018-Jun-15 13:16N 59°40' E 010°36'0 0.0
2018-Jun-15 12:57N 59°40' E 010°36'0 0.0
2018-Jun-15 12:29N 59°40' E 010°36'0 0.0
2018-Jun-15 11:59N 59°40' E 010°36'0 0.0
2018-Jun-15 11:27N 59°40' E 010°36'0 0.0
2018-Jun-15 10:54N 59°40' E 010°36'0 0.0
2018-Jun-15 10:22N 59°40' E 010°36'0 0.0
2018-Jun-15 09:57N 59°40' E 010°36'0 0.0
2018-Jun-15 09:27N 59°40' E 010°36'0 0.0
2018-Jun-15 09:00N 59°40' E 010°36'0 0.0
2018-Jun-15 08:27N 59°40' E 010°36'920.4
2018-Jun-15 08:01N 59°32' E 010°41'0 0.1
2018-Jun-15 07:30N 59°32' E 010°41'0 0.1
2018-Jun-15 07:00N 59°32' E 010°41'913.3
2018-Jun-15 06:19N 59°40' E 010°36'0 0.0
2018-Jun-15 06:00N 59°40' E 010°36'0 0.0
2018-Jun-15 05:30N 59°40' E 010°36'0 0.0
2018-Jun-15 04:59N 59°40' E 010°36'613.4
2018-Jun-15 04:31N 59°34' E 010°38'3 6.2
2018-Jun-15 04:00N 59°31' E 010°41'915.0
2018-Jun-15 03:23N 59°40' E 010°36'0 0.0
2018-Jun-15 02:59N 59°40' E 010°36'0 0.0
2018-Jun-15 02:28N 59°40' E 010°36'0 0.0
2018-Jun-15 01:59N 59°40' E 010°36'0 0.0
2018-Jun-15 01:29N 59°40' E 010°36'0 0.0
2018-Jun-15 00:57N 59°40' E 010°36'0 0.0
2018-Jun-15 00:29N 59°40' E 010°36'0 0.0
2018-Jun-15 00:00N 59°40' E 010°36'0 0.0
2018-Jun-14 23:30N 59°40' E 010°36'0 0.0
2018-Jun-14 22:58N 59°40' E 010°36'0 0.0
2018-Jun-14 22:25N 59°40' E 010°36'0 0.0
2018-Jun-14 21:53N 59°40' E 010°36'0 0.0
2018-Jun-14 21:25N 59°40' E 010°36'0 0.0
2018-Jun-14 21:00N 59°40' E 010°36'0 0.0
2018-Jun-14 20:30N 59°40' E 010°36'0 0.0
2018-Jun-14 19:58N 59°40' E 010°36'0 0.0
2018-Jun-14 19:25N 59°40' E 010°36'0 0.0
2018-Jun-14 19:00N 59°40' E 010°36'0 0.0
2018-Jun-14 18:24N 59°40' E 010°36'0 0.0
2018-Jun-14 17:54N 59°40' E 010°36'1 1.8
2018-Jun-14 17:30N 59°40' E 010°37'1020.6
2018-Jun-14 17:01N 59°32' E 010°25'815.7
2018-Jun-14 16:30N 59°40' E 010°24'1 0.4
2018-Jun-14 15:03N 59°40' E 010°24'236.0
2018-Jun-14 14:59N 59°38' E 010°25'816.2
2018-Jun-14 14:31N 59°32' E 010°34'816.4
2018-Jun-14 14:00N 59°40' E 010°36'0 0.0
2018-Jun-14 13:28N 59°40' E 010°36'0 0.0
2018-Jun-14 13:00N 59°40' E 010°36'0 0.0
2018-Jun-14 12:28N 59°40' E 010°36'0 0.1
2018-Jun-14 12:00N 59°40' E 010°36'917.2
2018-Jun-14 11:30N 59°49' E 010°37'0 0.0
2018-Jun-14 11:00N 59°49' E 010°37'0 0.0
2018-Jun-14 10:30N 59°49' E 010°37'916.3
2018-Jun-14 09:59N 59°40' E 010°36'0 0.0
2018-Jun-14 09:19N 59°40' E 010°36'0 0.0
2018-Jun-14 09:00N 59°40' E 010°36'1 1.7
2018-Jun-14 08:30N 59°40' E 010°37'0 0.4
2018-Jun-14 08:00N 59°40' E 010°38'1 1.9
2018-Jun-14 07:29N 59°40' E 010°36'0 0.0
2018-Jun-14 06:59N 59°40' E 010°36'0 0.0
2018-Jun-14 06:30N 59°40' E 010°36'0 0.0
2018-Jun-14 05:58N 59°40' E 010°36'0 0.0
2018-Jun-14 05:29N 59°40' E 010°36'0 0.0
2018-Jun-14 04:59N 59°40' E 010°36'0 0.0
2018-Jun-14 04:30N 59°40' E 010°36'0 0.0
2018-Jun-14 03:59N 59°40' E 010°36'0 0.0
2018-Jun-14 03:30N 59°40' E 010°36'0 0.0
2018-Jun-14 03:00N 59°40' E 010°36'0 0.0
2018-Jun-14 02:28N 59°40' E 010°36'0 0.0
2018-Jun-14 02:00N 59°40' E 010°36'0 0.0
2018-Jun-14 01:29N 59°40' E 010°36'0 0.0
2018-Jun-14 00:48N 59°40' E 010°36'0 0.0
2018-Jun-14 00:30N 59°40' E 010°36'0 0.0
2018-Jun-14 00:00N 59°40' E 010°36'0 0.0
2018-Jun-13 23:30N 59°40' E 010°36'0 0.0
2018-Jun-13 23:00N 59°40' E 010°36'0 0.0
2018-Jun-13 22:29N 59°40' E 010°36'0 0.0
2018-Jun-13 22:00N 59°40' E 010°36'0 0.0
2018-Jun-13 21:27N 59°40' E 010°36'0 0.0
2018-Jun-13 21:00N 59°40' E 010°36'0 0.0
2018-Jun-13 20:30N 59°40' E 010°36'0 0.0
2018-Jun-13 19:24N 59°40' E 010°36'0 0.0
2018-Jun-13 18:37N 59°40' E 010°36'0 0.0
2018-Jun-13 18:28N 59°40' E 010°36'0 0.1
2018-Jun-13 17:58N 59°40' E 010°36'2 3.9
2018-Jun-13 17:30N 59°42' E 010°36'2 4.6
2018-Jun-13 17:00N 59°40' E 010°36'0 0.7
2018-Jun-13 16:21N 59°40' E 010°36'0 0.0
2018-Jun-13 15:52N 59°40' E 010°36'0 0.0
2018-Jun-13 14:48N 59°40' E 010°36'0 0.0
2018-Jun-13 14:30N 59°40' E 010°36'0 0.0
2018-Jun-13 12:06N 59°40' E 010°36'0 0.1
2018-Jun-13 11:54N 59°40' E 010°36'1 1.4
2018-Jun-13 11:30N 59°41' E 010°37'0 0.0
2018-Jun-13 11:00N 59°41' E 010°37'0 0.0
2018-Jun-13 10:30N 59°41' E 010°37'0 0.0
2018-Jun-13 10:00N 59°41' E 010°37'0 0.0
2018-Jun-13 09:30N 59°41' E 010°37'917.7
2018-Jun-13 09:01N 59°32' E 010°38'1631.3
2018-Jun-13 08:30N 59°16' E 010°31'1 3.0
2018-Jun-13 08:00N 59°16' E 010°29'3 6.2
2018-Jun-13 07:30N 59°18' E 010°33'1631.9
2018-Jun-13 07:01N 59°34' E 010°37'7 3.8
2018-Jun-13 05:11N 59°40' E 010°36'0 0.0
2018-Jun-13 04:58N 59°40' E 010°36'0 0.0
2018-Jun-13 04:24N 59°40' E 010°36'0 0.0
2018-Jun-13 04:00N 59°40' E 010°36'0 0.0
2018-Jun-13 03:29N 59°40' E 010°36'0 0.0
2018-Jun-13 02:59N 59°40' E 010°36'0 0.0
2018-Jun-13 02:28N 59°40' E 010°36'0 0.0
2018-Jun-13 02:00N 59°40' E 010°36'0 0.0
2018-Jun-13 01:30N 59°40' E 010°36'0 0.0
2018-Jun-13 00:58N 59°40' E 010°36'0 0.0
2018-Jun-13 00:27N 59°40' E 010°36'0 0.0
2018-Jun-13 00:00N 59°40' E 010°36'0 0.0
2018-Jun-12 23:22N 59°40' E 010°36'0 0.0
2018-Jun-12 23:00N 59°40' E 010°36'0 0.0
2018-Jun-12 22:28N 59°40' E 010°36'0 0.0
2018-Jun-12 19:50N 59°40' E 010°36'0 0.0
2018-Jun-12 19:30N 59°40' E 010°36'0 0.0
2018-Jun-12 18:59N 59°40' E 010°36'0 0.0
2018-Jun-12 18:28N 59°40' E 010°36'0 0.0
2018-Jun-12 17:59N 59°40' E 010°36'0 0.0
2018-Jun-12 17:30N 59°40' E 010°36'3 1.6
2018-Jun-12 15:29N 59°43' E 010°32'1319.7
2018-Jun-12 14:51N 59°54' E 010°44'3 3.2
2018-Jun-12 14:04N 59°55' E 010°39'121.3
2018-Jun-12 14:00N 59°53' E 010°39'1311.7
2018-Jun-12 12:54N 59°40' E 010°36'0 0.0
2018-Jun-12 11:50N 59°40' E 010°36'0 0.0
2018-Jun-12 11:30N 59°40' E 010°36'0 0.0
2018-Jun-12 10:56N 59°40' E 010°36'0 0.0
2018-Jun-12 10:25N 59°40' E 010°36'1127.4
2018-Jun-12 10:00N 59°52' E 010°38'3 3.9
2018-Jun-12 09:14N 59°55' E 010°39'729.1
2018-Jun-12 09:01N 59°48' E 010°35'714.6
2018-Jun-12 08:30N 59°41' E 010°37'1 0.4
2018-Jun-12 06:53N 59°40' E 010°36'  

Dump ship's entire track history